Time;durP1;ratioP1;P1;durP2;ratioP2;P2;SDS_P1;SDS_P2;PMS_P1;PMS_P2;Temp;Humidity;BMP_temperature;BMP_pressure;BME280_temperature;BME280_humidity;BME280_pressure;Samples;Min_cycle;Max_cycle;Signal;HPM_P1;HPM_P2
2023/10/17 00:01:52;;;;;;;2.13;0.90;;;;;;;;;;5108776;28;20148;-80
2023/10/17 00:06:47;;;;;;;3.80;1.10;;;;;;;;;;5112347;28;20043;-79
2023/10/17 00:09:49;;;;;;;2.42;0.90;;;;;;;;;;5111590;28;20417;-79
2023/10/17 00:14:45;;;;;;;2.38;1.15;;;;;;;;;;5112103;28;20059;-81
2023/10/17 00:17:16;;;;;;;3.42;1.02;;;;;;;;;;5111797;28;20054;-80
2023/10/17 00:19:45;;;;;;;4.97;0.90;;;;;;;;;;5112378;28;20051;-81
2023/10/17 00:22:18;;;;;;;1.75;0.85;;;;;;;;;;5111860;28;20051;-81
2023/10/17 00:24:47;;;;;;;2.83;1.02;;;;;;;;;;5093203;28;20047;-80
2023/10/17 00:27:14;;;;;;;2.17;0.80;;;;;;;;;;5111883;28;20586;-81
2023/10/17 00:29:41;;;;;;;2.35;0.88;;;;;;;;;;5111891;28;20048;-80
2023/10/17 00:32:12;;;;;;;4.05;0.90;;;;;;;;;;5112206;28;20097;-78
2023/10/17 00:34:40;;;;;;;3.40;0.90;;;;;;;;;;5111756;28;20058;-81
2023/10/17 00:39:36;;;;;;;3.83;1.00;;;;;;;;;;5111256;28;20040;-82
2023/10/17 00:44:44;;;;;;;2.30;0.70;;;;;;;;;;5110972;28;20483;-81
2023/10/17 00:47:11;;;;;;;3.50;0.82;;;;;;;;;;5111597;28;20043;-80
2023/10/17 00:49:44;;;;;;;2.45;0.77;;;;;;;;;;5111190;28;20051;-77
2023/10/17 00:52:32;;;;;;;1.88;0.80;;;;;;;;;;5111465;28;20047;-81
2023/10/17 00:55:01;;;;;;;1.55;0.93;;;;;;;;;;5110937;28;20047;-80
2023/10/17 00:57:27;;;;;;;1.48;0.80;;;;;;;;;;5111397;28;20079;-80
2023/10/17 01:00:11;;;;;;;1.63;0.70;;;;;;;;;;5111594;28;20040;-81
2023/10/17 01:02:47;;;;;;;2.35;0.95;;;;;;;;;;5110945;28;20474;-81
2023/10/17 01:05:15;;;;;;;2.85;0.90;;;;;;;;;;5111006;28;20048;-76
2023/10/17 01:07:42;;;;;;;5.28;1.00;;;;;;;;;;5111238;28;20047;-80
2023/10/17 01:10:10;;;;;;;1.88;0.90;;;;;;;;;;5110588;28;20523;-81
2023/10/17 01:12:50;;;;;;;1.98;0.82;;;;;;;;;;5111380;28;20052;-80
2023/10/17 01:15:30;;;;;;;2.15;0.73;;;;;;;;;;5110353;28;20051;-80
2023/10/17 01:18:06;;;;;;;2.88;0.90;;;;;;;;;;5110386;28;20097;-80
2023/10/17 01:20:35;;;;;;;2.55;0.88;;;;;;;;;;5092833;28;20093;-80
2023/10/17 01:23:02;;;;;;;3.63;0.80;;;;;;;;;;5110377;28;20532;-82
2023/10/17 01:25:29;;;;;;;2.47;1.00;;;;;;;;;;5110522;28;20051;-81
2023/10/17 01:27:58;;;;;;;2.10;0.77;;;;;;;;;;5110733;28;20047;-81
2023/10/17 01:30:29;;;;;;;2.70;0.85;;;;;;;;;;5110628;28;20047;-81
2023/10/17 01:32:57;;;;;;;2.72;1.00;;;;;;;;;;5110706;28;20051;-78
2023/10/17 01:35:25;;;;;;;2.97;0.90;;;;;;;;;;5110489;28;20051;-82
2023/10/17 01:37:57;;;;;;;1.60;0.70;;;;;;;;;;5110289;28;20605;-79
2023/10/17 01:40:26;;;;;;;2.53;0.98;;;;;;;;;;5110398;28;20096;-82
2023/10/17 01:42:56;;;;;;;4.43;0.90;;;;;;;;;;5110367;28;20123;-81
2023/10/17 01:45:23;;;;;;;3.28;1.00;;;;;;;;;;5109941;28;20044;-80
2023/10/17 01:47:51;;;;;;;3.00;0.80;;;;;;;;;;5110668;28;20050;-74
2023/10/17 01:50:25;;;;;;;2.00;0.90;;;;;;;;;;5110044;28;20043;-81
2023/10/17 01:52:59;;;;;;;3.20;1.00;;;;;;;;;;5110603;28;20050;-82
2023/10/17 01:55:29;;;;;;;2.95;0.90;;;;;;;;;;5109759;28;20043;-82
2023/10/17 01:57:59;;;;;;;2.20;0.90;;;;;;;;;;5110056;28;20562;-82
2023/10/17 02:00:37;;;;;;;2.47;1.17;;;;;;;;;;5110180;28;20085;-81
2023/10/17 02:03:12;;;;;;;3.38;0.90;;;;;;;;;;5110114;28;20108;-81
2023/10/17 02:05:39;;;;;;;2.28;1.00;;;;;;;;;;5109639;28;20051;-82
2023/10/17 02:08:06;;;;;;;1.63;0.80;;;;;;;;;;5109832;28;20043;-81
2023/10/17 02:10:33;;;;;;;6.10;1.20;;;;;;;;;;5109484;28;20040;-81
2023/10/17 02:13:03;;;;;;;1.00;0.73;;;;;;;;;;5109841;28;20124;-81
2023/10/17 02:15:30;;;;;;;2.58;0.82;;;;;;;;;;5109515;28;20374;-80
2023/10/17 02:17:57;;;;;;;2.08;0.90;;;;;;;;;;5109971;28;20043;-81
2023/10/17 02:23:08;;;;;;;1.97;1.07;;;;;;;;;;5110002;28;20051;-81
2023/10/17 02:25:37;;;;;;;2.90;0.80;;;;;;;;;;5109246;28;20134;-82
2023/10/17 02:28:04;;;;;;;2.75;0.68;;;;;;;;;;5109685;28;20061;-76
2023/10/17 02:30:31;;;;;;;1.50;0.85;;;;;;;;;;5109523;28;20424;-79
2023/10/17 02:33:00;;;;;;;2.10;0.85;;;;;;;;;;5109574;28;20043;-81
2023/10/17 02:35:39;;;;;;;2.83;0.93;;;;;;;;;;5109458;28;20124;-82
2023/10/17 02:38:08;;;;;;;3.45;0.95;;;;;;;;;;5109001;28;20062;-82
2023/10/17 02:40:40;;;;;;;2.50;0.82;;;;;;;;;;5109008;28;20122;-81
2023/10/17 02:43:12;;;;;;;4.95;0.80;;;;;;;;;;5109596;28;20132;-80
2023/10/17 02:45:41;;;;;;;1.40;0.70;;;;;;;;;;5108636;28;20048;-81
2023/10/17 02:48:23;;;;;;;3.72;1.10;;;;;;;;;;5109176;28;20075;-79
2023/10/17 02:51:00;;;;;;;1.25;0.45;;;;;;;;;;5108879;28;20043;-78
2023/10/17 02:53:34;;;;;;;1.25;0.60;;;;;;;;;;5108894;28;20403;-81
2023/10/17 02:56:18;;;;;;;2.58;0.60;;;;;;;;;;5108742;28;20486;-76
2023/10/17 02:58:49;;;;;;;0.50;0.40;;;;;;;;;;5091147;28;20050;-80
2023/10/17 03:01:22;;;;;;;1.27;0.60;;;;;;;;;;5109072;28;20043;-79
2023/10/17 03:03:50;;;;;;;1.92;0.47;;;;;;;;;;5109095;28;20048;-82
2023/10/17 03:06:18;;;;;;;0.90;0.50;;;;;;;;;;5108636;28;20423;-82
2023/10/17 03:08:51;;;;;;;0.55;0.38;;;;;;;;;;5108782;28;20044;-81
2023/10/17 03:11:35;;;;;;;0.75;0.50;;;;;;;;;;5108837;28;20477;-79
2023/10/17 03:14:22;;;;;;;1.05;0.82;;;;;;;;;;5109539;28;20048;-81
2023/10/17 03:16:53;;;;;;;1.02;0.60;;;;;;;;;;5108756;28;20052;-82
2023/10/17 03:19:26;;;;;;;;;;;;;;;;;;5109586;28;20054;-82
2023/10/17 03:21:55;;;;;;;1.23;0.70;;;;;;;;;;5108889;28;19927;-82
2023/10/17 03:27:10;;;;;;;2.88;0.60;;;;;;;;;;5108514;28;20627;-81
2023/10/17 03:29:46;;;;;;;0.50;0.40;;;;;;;;;;5108988;28;20050;-81
2023/10/17 03:32:13;;;;;;;0.93;0.40;;;;;;;;;;5108664;28;20686;-79
2023/10/17 03:34:45;;;;;;;1.52;0.70;;;;;;;;;;5107717;28;20051;-80
2023/10/17 03:39:52;;;;;;;0.63;0.50;;;;;;;;;;5109788;28;20503;-77
2023/10/17 03:42:31;;;;;;;1.17;0.52;;;;;;;;;;5112955;28;20044;-76
2023/10/17 03:44:58;;;;;;;2.60;0.63;;;;;;;;;;5112052;28;20048;-80
2023/10/17 03:47:26;;;;;;;1.02;0.57;;;;;;;;;;5112760;28;20071;-79
2023/10/17 03:49:56;;;;;;;0.80;0.60;;;;;;;;;;5112328;28;20126;-81
2023/10/17 03:52:22;;;;;;;1.52;0.70;;;;;;;;;;5112641;28;20039;-71
2023/10/17 03:54:49;;;;;;;1.40;0.80;;;;;;;;;;5112158;28;20062;-79
2023/10/17 03:57:16;;;;;;;2.10;0.85;;;;;;;;;;5112507;28;20044;-81
2023/10/17 03:59:51;;;;;;;2.42;0.80;;;;;;;;;;5112367;28;20048;-82
2023/10/17 04:02:22;;;;;;;2.78;0.90;;;;;;;;;;5112435;28;20069;-81
2023/10/17 04:04:54;;;;;;;1.95;0.80;;;;;;;;;;5112155;28;20158;-79
2023/10/17 04:07:23;;;;;;;2.15;1.00;;;;;;;;;;5112130;28;20131;-80
2023/10/17 04:09:55;;;;;;;1.52;0.88;;;;;;;;;;5112135;28;20051;-81
2023/10/17 04:15:09;;;;;;;3.00;0.90;;;;;;;;;;5112315;28;20046;-80
2023/10/17 04:17:36;;;;;;;2.42;0.90;;;;;;;;;;5111573;28;20538;-82
2023/10/17 04:20:13;;;;;;;2.95;0.80;;;;;;;;;;5112086;28;20048;-79
2023/10/17 04:22:43;;;;;;;2.85;1.10;;;;;;;;;;5111891;28;20048;-82
2023/10/17 04:25:20;;;;;;;2.35;1.20;;;;;;;;;;5111398;28;20433;-81
2023/10/17 04:27:59;;;;;;;3.45;0.80;;;;;;;;;;5111576;28;20484;-81
2023/10/17 04:31:10;;;;;;;4.30;0.93;;;;;;;;;;5112049;28;20050;-81
2023/10/17 04:33:19;;;;;;;5.82;1.23;;;;;;;;;;5101054;28;20488;-82
2023/10/17 04:35:47;;;;;;;2.55;1.15;;;;;;;;;;5111311;28;20412;-81
2023/10/17 04:38:26;;;;;;;4.43;1.45;;;;;;;;;;5111088;28;20050;-80
2023/10/17 04:41:10;;;;;;;3.38;1.00;;;;;;;;;;5111299;28;20705;-81
2023/10/17 04:46:16;;;;;;;3.85;1.20;;;;;;;;;;5111253;28;20526;-77
2023/10/17 04:48:47;;;;;;;3.35;1.17;;;;;;;;;;5111733;28;20119;-81
2023/10/17 04:51:31;;;;;;;2.10;1.00;;;;;;;;;;5111372;28;20040;-81
2023/10/17 04:54:09;;;;;;;4.38;1.20;;;;;;;;;;5110811;28;20047;-82
2023/10/17 04:56:59;;;;;;;2.67;1.00;;;;;;;;;;5109502;28;20055;-81
2023/10/17 06:16:53;;;;;;;0.82;0.47;;;;;;;;;;5109094;28;20531;-81
2023/10/17 06:19:27;;;;;;;3.13;0.70;;;;;;;;;;5109841;28;20044;-80
2023/10/17 06:35:20;;;;;;;0.77;0.52;;;;;;;;;;5109677;28;20047;-80
2023/10/17 06:37:51;;;;;;;1.52;0.60;;;;;;;;;;5108899;28;20039;-78
2023/10/17 06:40:18;;;;;;;1.00;0.50;;;;;;;;;;5109848;28;20100;-80
2023/10/17 06:42:59;;;;;;;1.98;0.77;;;;;;;;;;5109206;28;20129;-80
2023/10/17 06:45:26;;;;;;;3.13;0.90;;;;;;;;;;5109113;28;20643;-76
2023/10/17 06:47:58;;;;;;;1.42;0.60;;;;;;;;;;5109096;28;20059;-79
2023/10/17 06:53:15;;;;;;;0.73;0.50;;;;;;;;;;5108911;28;20054;-76
2023/10/17 06:55:47;;;;;;;0.70;0.60;;;;;;;;;;5109122;28;20136;-81
2023/10/17 06:58:15;;;;;;;1.20;0.63;;;;;;;;;;5108747;28;20043;-81
2023/10/17 07:03:15;;;;;;;0.85;0.60;;;;;;;;;;5108998;28;20144;-78
2023/10/17 07:05:49;;;;;;;1.55;0.45;;;;;;;;;;5109415;28;20059;-80
2023/10/17 07:08:21;;;;;;;2.28;0.50;;;;;;;;;;5108706;28;20075;-81
2023/10/17 07:13:54;;;;;;;1.48;0.55;;;;;;;;;;5108815;28;20051;-80
2023/10/17 07:16:26;;;;;;;0.90;0.65;;;;;;;;;;5113195;28;20494;-81
2023/10/17 07:19:09;;;;;;;0.63;0.50;;;;;;;;;;5113045;28;20043;-80
2023/10/17 07:24:23;;;;;;;1.27;0.50;;;;;;;;;;5112595;28;20101;-80
2023/10/17 07:26:54;;;;;;;1.08;0.50;;;;;;;;;;5113254;28;20047;-81
2023/10/17 07:29:25;;;;;;;1.90;0.60;;;;;;;;;;5094565;28;20101;-81
2023/10/17 07:31:54;;;;;;;1.90;0.70;;;;;;;;;;5112889;28;20592;-81
2023/10/17 07:34:22;;;;;;;1.50;0.70;;;;;;;;;;5112846;28;20048;-75
2023/10/17 07:36:55;;;;;;;1.17;0.50;;;;;;;;;;5112730;28;20134;-76
2023/10/17 07:39:36;;;;;;;1.95;0.47;;;;;;;;;;5112326;28;20105;-80
2023/10/17 07:42:04;;;;;;;0.75;0.50;;;;;;;;;;5112954;28;20062;-78
2023/10/17 07:44:34;;;;;;;1.67;0.50;;;;;;;;;;5112743;28;20047;-80
2023/10/17 07:49:38;;;;;;;1.08;0.65;;;;;;;;;;5112483;28;20039;-82
2023/10/17 07:52:10;;;;;;;1.10;0.43;;;;;;;;;;5112542;28;20048;-73
2023/10/17 07:54:57;;;;;;;5.78;1.15;;;;;;;;;;5112248;28;20047;-81
2023/10/17 07:57:25;;;;;;;2.35;0.60;;;;;;;;;;5112398;28;20131;-77
2023/10/17 07:59:52;;;;;;;2.85;0.80;;;;;;;;;;5093974;28;20047;-78
2023/10/17 08:02:20;;;;;;;2.60;0.63;;;;;;;;;;5112922;28;20124;-79
2023/10/17 08:04:53;;;;;;;2.55;0.60;;;;;;;;;;5112269;28;20043;-72
2023/10/17 08:07:22;;;;;;;1.58;0.60;;;;;;;;;;5112560;28;20056;-70
2023/10/17 08:09:59;;;;;;;2.88;0.80;;;;;;;;;;5111274;28;20126;-80
2023/10/17 08:12:29;;;;;;;2.40;0.70;;;;;;;;;;5112071;28;20047;-69
2023/10/17 08:14:58;;;;;;;0.93;0.75;;;;;;;;;;5094507;28;20051;-75
2023/10/17 08:17:28;;;;;;;2.33;0.70;;;;;;;;;;5111980;28;20052;-75
2023/10/17 08:20:38;;;;;;;4.20;0.63;;;;;;;;;;5111781;28;20046;-75
2023/10/17 08:22:55;;;;;;;2.60;0.80;;;;;;;;;;5111624;28;20048;-80
2023/10/17 08:25:32;;;;;;;1.40;0.63;;;;;;;;;;5111451;28;20047;-81
2023/10/17 08:28:03;;;;;;;3.05;0.70;;;;;;;;;;5111816;28;20044;-78
2023/10/17 08:30:38;;;;;;;1.65;0.70;;;;;;;;;;5111801;28;20074;-77
2023/10/17 08:33:11;;;;;;;1.63;0.77;;;;;;;;;;5111473;28;20051;-76
2023/10/17 08:35:39;;;;;;;3.92;0.90;;;;;;;;;;5111709;28;20052;-80
2023/10/17 08:38:10;;;;;;;1.88;0.80;;;;;;;;;;5111346;28;20062;-80
2023/10/17 08:43:14;;;;;;;3.20;0.85;;;;;;;;;;5111318;28;19923;-80
2023/10/17 08:45:46;;;;;;;3.58;1.10;;;;;;;;;;5111673;28;20071;-80
2023/10/17 08:48:13;;;;;;;3.30;0.80;;;;;;;;;;5111312;28;20449;-81
2023/10/17 08:50:40;;;;;;;3.88;0.90;;;;;;;;;;5111464;28;20438;-75
2023/10/17 08:53:23;;;;;;;2.53;0.90;;;;;;;;;;5110892;28;20138;-78
2023/10/17 08:55:52;;;;;;;1.45;0.77;;;;;;;;;;5111852;28;20156;-76
2023/10/17 08:58:24;;;;;;;1.27;0.60;;;;;;;;;;5111359;28;20052;-75
2023/10/17 09:01:07;;;;;;;4.38;0.90;;;;;;;;;;5111556;28;20043;-74
2023/10/17 09:03:38;;;;;;;2.95;0.85;;;;;;;;;;5110958;28;20100;-73
2023/10/17 09:06:28;;;;;;;;;;;;;;;;;;5111789;28;20059;-72
2023/10/17 09:11:31;;;;;;;6.07;1.00;;;;;;;;;;5111584;28;20047;-73
2023/10/17 09:16:41;;;;;;;1.03;0.70;;;;;;;;;;5110757;28;20048;-67
2023/10/17 09:19:10;;;;;;;3.22;0.80;;;;;;;;;;5110430;28;20293;-67
2023/10/17 09:21:41;;;;;;;2.53;0.88;;;;;;;;;;5110684;28;20537;-75
2023/10/17 09:24:29;;;;;;;2.53;1.02;;;;;;;;;;5110350;28;20079;-77
2023/10/17 09:26:58;;;;;;;1.45;0.70;;;;;;;;;;5110543;28;20119;-79
2023/10/17 09:29:27;;;;;;;1.65;0.80;;;;;;;;;;5110249;28;20049;-77
2023/10/17 09:31:55;;;;;;;4.35;0.80;;;;;;;;;;5110629;28;20047;-79
2023/10/17 09:34:25;;;;;;;5.43;1.05;;;;;;;;;;5110904;28;20052;-79
2023/10/17 09:36:58;;;;;;;3.45;0.95;;;;;;;;;;5109371;28;20506;-80
2023/10/17 09:39:29;;;;;;;3.17;1.00;;;;;;;;;;5109931;28;20051;-79
2023/10/17 09:42:05;;;;;;;2.40;0.80;;;;;;;;;;5110462;28;20037;-74
2023/10/17 09:44:35;;;;;;;2.97;1.08;;;;;;;;;;5110225;28;20047;-79
2023/10/17 09:47:06;;;;;;;4.20;1.08;;;;;;;;;;5110333;28;20047;-74
2023/10/17 09:49:48;;;;;;;5.28;1.10;;;;;;;;;;5110337;28;20147;-79
2023/10/17 09:52:19;;;;;;;5.10;1.10;;;;;;;;;;5110214;28;20071;-75
2023/10/17 09:54:51;;;;;;;2.00;1.00;;;;;;;;;;5109666;28;20097;-79
2023/10/17 09:57:20;;;;;;;1.63;0.70;;;;;;;;;;5110426;28;20040;-73
2023/10/17 10:00:23;;;;;;;2.83;0.82;;;;;;;;;;5092192;28;20047;-76
2023/10/17 10:02:52;;;;;;;1.92;0.70;;;;;;;;;;5110172;28;20048;-74
2023/10/17 10:05:38;;;;;;;2.63;0.93;;;;;;;;;;5094570;28;20052;-78
2023/10/17 10:08:33;;;;;;;2.90;0.80;;;;;;;;;;5109990;28;20050;-80
2023/10/17 10:11:03;;;;;;;3.83;0.85;;;;;;;;;;5109505;28;20051;-79
2023/10/17 10:13:31;;;;;;;4.28;0.90;;;;;;;;;;5109932;28;20046;-78
2023/10/17 10:16:01;;;;;;;4.97;1.35;;;;;;;;;;5109657;28;20048;-74
2023/10/17 10:18:40;;;;;;;;;;;;;;;;;;5110147;28;20048;-78
2023/10/17 10:21:08;;;;;;;4.93;1.02;;;;;;;;;;5109371;28;19930;-78
2023/10/17 10:23:39;;;;;;;3.58;1.02;;;;;;;;;;5109776;28;20552;-78
2023/10/17 10:26:17;;;;;;;4.95;0.80;;;;;;;;;;5109711;28;20054;-69
2023/10/17 10:28:44;;;;;;;4.10;0.97;;;;;;;;;;5109756;28;20523;-80
2023/10/17 10:31:24;;;;;;;2.72;0.90;;;;;;;;;;5109178;28;20343;-79
2023/10/17 10:33:53;;;;;;;3.60;1.00;;;;;;;;;;5109640;28;20075;-79
2023/10/17 10:36:24;;;;;;;5.88;1.20;;;;;;;;;;5091402;28;20096;-80
2023/10/17 10:38:54;;;;;;;3.88;1.25;;;;;;;;;;5109525;28;20123;-81
2023/10/17 10:41:22;;;;;;;;;;;;;;;;;;5109869;28;20048;-80
2023/10/17 10:43:58;;;;;;;3.28;1.20;;;;;;;;;;5109352;28;20390;-78
2023/10/17 10:46:25;;;;;;;6.78;1.23;;;;;;;;;;5109185;28;20044;-80
2023/10/17 10:48:56;;;;;;;2.63;1.13;;;;;;;;;;5108902;28;20051;-80
2023/10/17 10:51:26;;;;;;;4.47;1.00;;;;;;;;;;5108909;28;20077;-81
2023/10/17 10:53:57;;;;;;;3.00;0.90;;;;;;;;;;5108905;28;20040;-79
2023/10/17 10:56:27;;;;;;;1.95;0.80;;;;;;;;;;5108979;28;20063;-74
2023/10/17 10:58:57;;;;;;;3.75;1.15;;;;;;;;;;5109304;28;20071;-80
2023/10/17 11:01:25;;;;;;;3.10;0.88;;;;;;;;;;5109125;28;20047;-78
2023/10/17 11:03:52;;;;;;;2.45;0.80;;;;;;;;;;5109456;28;20055;-81
2023/10/17 11:06:24;;;;;;;4.38;1.10;;;;;;;;;;5108586;28;20054;-81
2023/10/17 11:08:54;;;;;;;4.43;1.20;;;;;;;;;;5108581;28;20140;-80
2023/10/17 11:11:21;;;;;;;4.80;1.42;;;;;;;;;;5108667;28;20052;-78
2023/10/17 11:13:50;;;;;;;5.68;1.08;;;;;;;;;;5108801;28;20139;-80
2023/10/17 11:16:19;;;;;;;5.85;1.42;;;;;;;;;;5108537;28;20499;-78
2023/10/17 11:18:47;;;;;;;3.42;0.90;;;;;;;;;;5109285;28;20141;-77
2023/10/17 11:21:17;;;;;;;3.97;1.00;;;;;;;;;;5108772;28;20085;-79
2023/10/17 11:23:50;;;;;;;3.40;1.30;;;;;;;;;;5108793;28;20051;-78
2023/10/17 11:26:21;;;;;;;3.97;1.20;;;;;;;;;;5108352;28;20402;-77
2023/10/17 11:28:55;;;;;;;5.32;1.33;;;;;;;;;;5108802;28;20077;-78
2023/10/17 11:31:24;;;;;;;3.55;1.00;;;;;;;;;;5108797;28;20039;-80
2023/10/17 11:33:59;;;;;;;3.80;1.30;;;;;;;;;;5108994;28;20496;-79
2023/10/17 11:36:35;;;;;;;4.13;1.20;;;;;;;;;;5108919;28;20093;-80
2023/10/17 11:39:07;;;;;;;3.88;1.23;;;;;;;;;;5108627;28;20388;-78
2023/10/17 11:41:46;;;;;;;7.00;1.02;;;;;;;;;;5108398;28;20676;-81
2023/10/17 11:44:15;;;;;;;5.22;1.15;;;;;;;;;;5108672;28;20051;-75
2023/10/17 11:46:55;;;;;;;4.68;0.90;;;;;;;;;;5108740;28;20127;-80
2023/10/17 11:49:29;;;;;;;2.78;1.00;;;;;;;;;;5109183;28;20044;-79
2023/10/17 11:52:01;;;;;;;3.47;0.90;;;;;;;;;;5108593;28;20047;-82
2023/10/17 11:54:29;;;;;;;3.83;1.08;;;;;;;;;;5108399;28;20399;-79
2023/10/17 11:57:12;;;;;;;4.63;1.08;;;;;;;;;;5091632;28;20047;-78
2023/10/17 12:02:49;;;;;;;4.18;1.30;;;;;;;;;;5112433;28;20768;-80
2023/10/17 12:05:21;;;;;;;;;;;;;;;;;;5112908;28;20063;-81
2023/10/17 12:07:49;;;;;;;2.85;1.10;;;;;;;;;;5112545;28;19927;-72
2023/10/17 12:10:17;;;;;;;3.83;1.17;;;;;;;;;;5112286;28;20039;-80
2023/10/17 12:12:43;;;;;;;4.03;0.80;;;;;;;;;;5112293;28;20048;-80
2023/10/17 12:15:13;;;;;;;5.27;1.20;;;;;;;;;;5112346;28;20044;-80
2023/10/17 12:17:41;;;;;;;3.67;1.23;;;;;;;;;;5111952;28;20399;-80
2023/10/17 12:20:11;;;;;;;3.97;1.17;;;;;;;;;;5112131;28;20040;-78
2023/10/17 12:22:39;;;;;;;4.32;1.20;;;;;;;;;;5111991;28;20074;-79
2023/10/17 12:25:10;;;;;;;3.22;1.00;;;;;;;;;;5111577;28;20082;-78
2023/10/17 12:27:39;;;;;;;5.43;1.00;;;;;;;;;;5111911;28;20043;-81
2023/10/17 12:30:09;;;;;;;3.03;1.00;;;;;;;;;;5111150;28;20612;-81
2023/10/17 12:32:36;;;;;;;5.03;1.20;;;;;;;;;;5111692;28;20047;-81
2023/10/17 12:35:06;;;;;;;5.03;1.10;;;;;;;;;;5112197;28;20048;-81
2023/10/17 12:37:43;;;;;;;3.97;0.98;;;;;;;;;;5111565;28;20554;-78
2023/10/17 12:40:21;;;;;;;3.30;1.08;;;;;;;;;;5111447;28;20127;-79
2023/10/17 12:42:50;;;;;;;3.92;1.00;;;;;;;;;;5111502;28;20078;-80
2023/10/17 12:45:17;;;;;;;5.43;1.10;;;;;;;;;;5111913;28;20047;-81
2023/10/17 12:47:48;;;;;;;3.28;1.10;;;;;;;;;;5111471;28;20087;-81
2023/10/17 12:50:18;;;;;;;4.30;1.10;;;;;;;;;;5111833;28;20047;-81
2023/10/17 12:52:45;;;;;;;3.88;1.10;;;;;;;;;;5110975;28;20048;-77
2023/10/17 12:55:12;;;;;;;3.63;1.00;;;;;;;;;;5111342;28;20050;-80
2023/10/17 12:57:40;;;;;;;4.30;1.10;;;;;;;;;;5111178;28;20495;-81
2023/10/17 13:00:14;;;;;;;2.53;0.98;;;;;;;;;;5111147;28;20647;-81
2023/10/17 13:02:42;;;;;;;2.40;1.00;;;;;;;;;;5110919;28;20040;-80
2023/10/17 13:05:11;;;;;;;4.07;1.00;;;;;;;;;;5111076;28;20555;-80
2023/10/17 13:07:39;;;;;;;3.42;0.80;;;;;;;;;;5110848;28;20483;-82
2023/10/17 13:10:08;;;;;;;6.50;1.13;;;;;;;;;;5110537;28;20521;-81
2023/10/17 13:12:41;;;;;;;5.07;1.00;;;;;;;;;;5110819;28;20048;-81
2023/10/17 13:15:09;;;;;;;4.22;1.00;;;;;;;;;;5111285;28;20131;-75
2023/10/17 13:17:36;;;;;;;5.30;1.60;;;;;;;;;;5110483;28;20101;-79
2023/10/17 13:20:10;;;;;;;4.90;1.10;;;;;;;;;;5111121;28;20083;-80
2023/10/17 13:22:53;;;;;;;3.95;0.98;;;;;;;;;;5110653;28;20043;-80
2023/10/17 13:25:19;;;;;;;2.80;1.10;;;;;;;;;;5111116;28;20072;-81
2023/10/17 13:27:46;;;;;;;3.35;1.05;;;;;;;;;;5110439;28;20104;-80
2023/10/17 13:30:13;;;;;;;2.47;0.80;;;;;;;;;;5110662;28;20504;-77
2023/10/17 13:32:40;;;;;;;4.82;1.20;;;;;;;;;;5110150;28;20503;-79
2023/10/17 13:35:07;;;;;;;3.83;1.00;;;;;;;;;;5110873;28;20097;-75
2023/10/17 13:37:35;;;;;;;5.70;1.17;;;;;;;;;;5111029;28;20043;-79
2023/10/17 13:40:02;;;;;;;4.15;1.20;;;;;;;;;;5110526;28;20511;-79
2023/10/17 13:42:30;;;;;;;3.47;1.00;;;;;;;;;;5110236;28;20049;-81
2023/10/17 13:44:57;;;;;;;4.22;0.90;;;;;;;;;;5110371;28;20545;-80
2023/10/17 13:47:25;;;;;;;5.55;1.00;;;;;;;;;;5110175;28;20052;-81
2023/10/17 13:49:53;;;;;;;4.40;1.00;;;;;;;;;;5110397;28;20067;-80
2023/10/17 13:52:26;;;;;;;2.42;1.00;;;;;;;;;;5110195;28;20131;-79
2023/10/17 13:54:53;;;;;;;5.38;1.13;;;;;;;;;;5109873;28;20043;-80
2023/10/17 13:57:20;;;;;;;4.60;1.00;;;;;;;;;;5110208;28;20108;-81
2023/10/17 13:59:53;;;;;;;3.15;1.10;;;;;;;;;;5110211;28;20400;-77
2023/10/17 14:02:20;;;;;;;4.75;1.30;;;;;;;;;;5118770;28;20248;-76
2023/10/17 14:04:48;;;;;;;3.97;0.90;;;;;;;;;;5121958;28;20044;-83
2023/10/17 14:07:15;;;;;;;4.53;1.58;;;;;;;;;;5120358;28;20074;-74
2023/10/17 14:09:42;;;;;;;5.55;1.30;;;;;;;;;;5121218;28;20050;-78
2023/10/17 14:12:09;;;;;;;3.83;1.27;;;;;;;;;;5121398;28;20044;-82
2023/10/17 14:14:36;;;;;;;4.38;1.30;;;;;;;;;;5120005;28;20408;-80
2023/10/17 14:17:03;;;;;;;4.07;1.85;;;;;;;;;;5121533;28;20048;-77
2023/10/17 14:19:40;;;;;;;3.60;1.20;;;;;;;;;;5121442;28;20041;-76
2023/10/17 14:24:50;;;;;;;3.08;1.15;;;;;;;;;;5120594;28;20050;-76
2023/10/17 14:27:22;;;;;;;7.03;1.20;;;;;;;;;;5110095;27;20059;-76
2023/10/17 14:29:50;;;;;;;4.53;1.23;;;;;;;;;;5126289;27;20046;-74
2023/10/17 14:32:17;;;;;;;2.95;1.13;;;;;;;;;;5130572;27;20050;-72
2023/10/17 14:34:45;;;;;;;2.40;1.20;;;;;;;;;;5124407;27;20051;-74
2023/10/17 14:37:13;;;;;;;7.93;1.30;;;;;;;;;;5139676;27;20066;-75
2023/10/17 14:39:42;;;;;;;6.30;1.30;;;;;;;;;;5126169;27;20075;-77
2023/10/17 14:42:13;;;;;;;6.10;1.50;;;;;;;;;;5129524;27;20047;-76
2023/10/17 14:44:45;;;;;;;3.22;1.27;;;;;;;;;;5141362;27;20074;-73
2023/10/17 14:47:14;;;;;;;3.60;1.20;;;;;;;;;;5134535;27;20086;-77
2023/10/17 14:49:41;;;;;;;3.58;1.15;;;;;;;;;;5121494;28;20232;-75
2023/10/17 14:52:08;;;;;;;7.00;1.20;;;;;;;;;;5140824;27;20055;-78
2023/10/17 14:54:34;;;;;;;4.65;1.35;;;;;;;;;;5141239;27;20066;-77
2023/10/17 14:57:06;;;;;;;4.03;1.20;;;;;;;;;;5141151;27;20437;-77
2023/10/17 14:59:34;;;;;;;3.53;1.10;;;;;;;;;;5141242;27;20458;-79
2023/10/17 15:02:02;;;;;;;4.32;1.15;;;;;;;;;;5140935;27;20058;-78
2023/10/17 15:04:29;;;;;;;4.05;1.50;;;;;;;;;;5132871;27;20043;-78
2023/10/17 15:06:56;;;;;;;2.50;1.27;;;;;;;;;;5121712;28;20106;-79
2023/10/17 15:09:22;;;;;;;2.60;1.30;;;;;;;;;;5140674;27;20047;-74
2023/10/17 15:11:49;;;;;;;2.55;1.33;;;;;;;;;;5141222;28;20043;-77
2023/10/17 15:14:16;;;;;;;3.63;1.40;;;;;;;;;;5140827;28;20104;-72
2023/10/17 15:16:43;;;;;;;3.42;1.20;;;;;;;;;;5140637;28;20247;-72
2023/10/17 15:19:11;;;;;;;2.47;1.30;;;;;;;;;;5136860;28;20076;-76
2023/10/17 15:21:39;;;;;;;4.65;1.35;;;;;;;;;;5132724;28;20110;-79
2023/10/17 15:24:10;;;;;;;4.57;1.33;;;;;;;;;;5125333;28;20043;-79
2023/10/17 15:26:37;;;;;;;3.53;1.40;;;;;;;;;;5120476;28;20274;-77
2023/10/17 15:29:04;;;;;;;5.20;1.38;;;;;;;;;;5140838;28;20081;-75
2023/10/17 15:31:31;;;;;;;2.97;1.20;;;;;;;;;;5141113;27;20114;-81
2023/10/17 15:33:59;;;;;;;3.63;1.20;;;;;;;;;;5132046;27;20343;-78
2023/10/17 15:36:27;;;;;;;2.92;1.10;;;;;;;;;;5122937;28;20190;-78
2023/10/17 15:38:56;;;;;;;3.30;1.05;;;;;;;;;;5124058;27;20050;-78
2023/10/17 15:41:23;;;;;;;4.82;1.30;;;;;;;;;;5129465;27;20354;-73
2023/10/17 15:43:50;;;;;;;2.63;1.42;;;;;;;;;;5144830;27;20391;-77
2023/10/17 15:46:17;;;;;;;3.05;1.10;;;;;;;;;;5144905;27;20051;-81
2023/10/17 15:48:44;;;;;;;2.97;1.20;;;;;;;;;;5144365;27;20065;-79
2023/10/17 15:51:19;;;;;;;6.50;1.33;;;;;;;;;;5145073;27;20043;-75
2023/10/17 15:53:46;;;;;;;2.15;1.10;;;;;;;;;;5143974;27;20074;-74
2023/10/17 15:56:13;;;;;;;3.28;1.10;;;;;;;;;;5144560;27;20043;-71
2023/10/17 15:58:40;;;;;;;3.80;1.30;;;;;;;;;;5144581;27;20055;-76
2023/10/17 16:01:12;;;;;;;;;;;;;;;;;;5144679;27;20045;-76
2023/10/17 16:03:41;;;;;;;1.90;1.10;;;;;;;;;;5144495;27;19968;-76
2023/10/17 16:06:08;;;;;;;3.17;1.55;;;;;;;;;;5144458;27;20050;-69
2023/10/17 16:08:35;;;;;;;4.03;1.40;;;;;;;;;;5143048;27;20115;-72
2023/10/17 16:11:03;;;;;;;3.97;1.30;;;;;;;;;;5125852;27;20043;-77
2023/10/17 16:13:30;;;;;;;2.72;1.40;;;;;;;;;;5143892;27;20057;-76
2023/10/17 16:15:58;;;;;;;5.70;1.60;;;;;;;;;;5139284;27;20078;-75
2023/10/17 16:18:26;;;;;;;7.30;1.48;;;;;;;;;;5133609;27;20119;-78
2023/10/17 16:20:53;;;;;;;5.10;1.48;;;;;;;;;;5144015;27;20047;-71
2023/10/17 16:23:20;;;;;;;2.80;1.50;;;;;;;;;;5143498;27;20118;-77
2023/10/17 16:25:52;;;;;;;3.85;1.42;;;;;;;;;;5143983;27;20081;-76
2023/10/17 16:28:19;;;;;;;4.47;1.50;;;;;;;;;;5143478;27;20051;-73
2023/10/17 16:30:47;;;;;;;2.08;1.35;;;;;;;;;;5143804;27;20043;-77
2023/10/17 16:33:15;;;;;;;4.35;1.48;;;;;;;;;;5143633;27;20050;-77
2023/10/17 16:35:44;;;;;;;4.78;1.70;;;;;;;;;;5143592;27;20074;-78
2023/10/17 16:38:14;;;;;;;4.15;2.00;;;;;;;;;;5143295;27;20047;-75
2023/10/17 16:40:44;;;;;;;4.15;1.38;;;;;;;;;;5144042;27;20043;-76
2023/10/17 16:43:12;;;;;;;4.00;1.88;;;;;;;;;;5143536;27;20313;-76
2023/10/17 16:45:47;;;;;;;3.83;1.65;;;;;;;;;;5143577;27;20051;-78
2023/10/17 16:48:14;;;;;;;5.65;1.83;;;;;;;;;;5143494;27;20333;-78
2023/10/17 16:50:50;;;;;;;3.63;1.60;;;;;;;;;;5130774;27;20229;-78
2023/10/17 16:53:17;;;;;;;4.50;1.95;;;;;;;;;;5130355;27;20092;-69
2023/10/17 16:55:45;;;;;;;3.08;1.90;;;;;;;;;;5143595;27;20043;-68
2023/10/17 16:58:12;;;;;;;5.82;2.00;;;;;;;;;;5143301;27;20099;-67
2023/10/17 17:00:39;;;;;;;5.43;1.50;;;;;;;;;;5143504;27;20050;-70
2023/10/17 17:03:06;;;;;;;3.10;1.70;;;;;;;;;;5143146;27;20156;-71
2023/10/17 17:05:32;;;;;;;8.95;2.13;;;;;;;;;;5142993;27;20083;-75
2023/10/17 17:07:59;;;;;;;4.45;1.67;;;;;;;;;;5142637;27;20364;-76
2023/10/17 17:10:26;;;;;;;8.13;1.85;;;;;;;;;;5142032;27;20398;-74
2023/10/17 17:12:53;;;;;;;5.88;1.85;;;;;;;;;;5141985;27;20441;-77
2023/10/17 17:15:21;;;;;;;3.08;1.70;;;;;;;;;;5131695;27;20347;-77
2023/10/17 17:17:47;;;;;;;2.97;1.60;;;;;;;;;;5140134;27;20243;-77
2023/10/17 17:20:14;;;;;;;5.82;2.08;;;;;;;;;;5121735;28;20068;-77
2023/10/17 17:22:44;;;;;;;5.88;1.80;;;;;;;;;;5126866;27;20397;-75
2023/10/17 17:25:13;;;;;;;4.88;1.98;;;;;;;;;;5126728;27;20045;-77
2023/10/17 17:27:43;;;;;;;5.50;2.00;;;;;;;;;;5121895;28;20051;-77
2023/10/17 17:30:19;;;;;;;5.40;1.75;;;;;;;;;;5122165;28;20236;-77